Harstad/Narvik Airport, Evenes


Codes: ENEV/EVE
Name: Harstad/Narvik Airport, Evenes
City: Evenes
Country: Norway
Elevation: 84 ft.
Website:
Wikipedia:

Photos at Harstad/Narvik Airport, Evenes


   Photos courtesy of SpottingLog. You can add your own sightings and photos by signing up for a free trial today.



No photos found.

Weather at Harstad/Narvik Airport, Evenes


Time (UTC)DescriptionTempratureWindCloud coverageVisibilityPressureHumidity
21-Jun-2024 15:00Light Rain11°C7 mph, S83%4771m1011hPa91%
21-Jun-2024 18:00Light Rain10°C4 mph, SW92%10000m1013hPa89%
21-Jun-2024 21:00Overcast Clouds9°C4 mph, SW94%10000m1015hPa91%
22-Jun-2024 00:00Broken Clouds8°C2 mph, S77%10000m1016hPa93%
22-Jun-2024 03:00Overcast Clouds10°C0 mph, NE93%10000m1015hPa86%
22-Jun-2024 06:00Overcast Clouds11°C2 mph, E96%10000m1015hPa75%
22-Jun-2024 09:00Broken Clouds15°C2 mph, E71%10000m1014hPa55%
22-Jun-2024 12:00Broken Clouds17°C2 mph, E65%10000m1013hPa47%
22-Jun-2024 15:00Few Clouds17°C4 mph, NE21%10000m1012hPa46%
22-Jun-2024 18:00Scattered Clouds16°C4 mph, N30%10000m1011hPa54%
22-Jun-2024 21:00Scattered Clouds13°C4 mph, N31%10000m1010hPa68%
23-Jun-2024 00:00Broken Clouds12°C2 mph, NE54%10000m1009hPa68%
23-Jun-2024 03:00Overcast Clouds14°C2 mph, E99%10000m1008hPa66%
23-Jun-2024 06:00Overcast Clouds18°C2 mph, SE99%10000m1007hPa53%
23-Jun-2024 09:00Overcast Clouds19°C9 mph, SW100%10000m1006hPa50%
23-Jun-2024 12:00Overcast Clouds15°C9 mph, SW100%10000m1007hPa78%
23-Jun-2024 15:00Moderate Rain12°C4 mph, S100%115m1008hPa99%
23-Jun-2024 18:00Moderate Rain12°C7 mph, SW100%854m1008hPa96%
23-Jun-2024 21:00Light Rain11°C13 mph, SW87%10000m1009hPa87%
24-Jun-2024 00:00Light Rain10°C9 mph, SW81%10000m1010hPa86%
24-Jun-2024 03:00Light Rain10°C7 mph, SW99%10000m1011hPa93%
24-Jun-2024 06:00Light Rain10°C7 mph, SW100%10000m1012hPa90%
24-Jun-2024 09:00Light Rain10°C9 mph, SW100%10000m1013hPa90%
24-Jun-2024 12:00Light Rain10°C7 mph, SW100%10000m1014hPa93%
24-Jun-2024 15:00Light Rain10°C11 mph, SW100%10000m1016hPa89%
24-Jun-2024 18:00Light Rain11°C9 mph, SW100%10000m1016hPa85%
24-Jun-2024 21:00Light Rain10°C4 mph, SE100%10000m1014hPa88%
25-Jun-2024 00:00Light Rain10°C4 mph, SW100%10000m1013hPa92%
25-Jun-2024 03:00Light Rain10°C4 mph, SW100%10000m1013hPa96%
25-Jun-2024 06:00Light Rain10°C4 mph, SW100%1844m1012hPa97%
25-Jun-2024 09:00Light Rain12°C9 mph, SW100%9276m1013hPa96%
25-Jun-2024 12:00Light Rain12°C13 mph, SW100%1627m1015hPa97%
25-Jun-2024 15:00Light Rain12°C13 mph, SW100%10000m1016hPa90%
25-Jun-2024 18:00Light Rain11°C7 mph, SW100%10000m1017hPa91%
25-Jun-2024 21:00Overcast Clouds11°C4 mph, SW100%10000m1017hPa96%
26-Jun-2024 00:00Light Rain10°C4 mph, SW100%406m1016hPa99%
26-Jun-2024 03:00Moderate Rain10°C4 mph, SW100%236m1018hPa99%
26-Jun-2024 06:00Light Rain11°C2 mph, SW100%10000m1020hPa94%
26-Jun-2024 09:00Overcast Clouds12°C0 mph, NW97%10000m1021hPa86%
26-Jun-2024 12:00Light Rain14°C2 mph, NE95%10000m1022hPa76%